createdAt,value
2024-05-09T00:00:35.812Z,30.33
2024-05-09T00:03:10.192Z,27.65
2024-05-09T00:05:38.419Z,28.00
2024-05-09T00:08:05.970Z,27.85
2024-05-09T00:10:37.227Z,28.38
2024-05-09T00:13:09.762Z,26.73
2024-05-09T00:15:37.176Z,24.52
2024-05-09T00:18:05.315Z,25.73
2024-05-09T00:20:37.993Z,26.38
2024-05-09T00:23:09.258Z,22.63
2024-05-09T00:25:36.790Z,25.67
2024-05-09T00:28:03.700Z,25.90
2024-05-09T00:30:35.047Z,25.63
2024-05-09T00:33:07.777Z,25.38
2024-05-09T00:35:35.786Z,26.20
2024-05-09T00:38:02.717Z,25.00
2024-05-09T00:40:40.016Z,26.15
2024-05-09T00:43:09.915Z,26.52
2024-05-09T00:45:36.649Z,25.45
2024-05-09T00:48:07.121Z,25.25
2024-05-09T00:50:37.557Z,26.50
2024-05-09T00:53:10.962Z,24.92
2024-05-09T00:55:38.880Z,24.70
2024-05-09T00:58:08.214Z,25.02
2024-05-09T01:00:39.322Z,26.30
2024-05-09T01:03:09.724Z,25.65
2024-05-09T01:05:39.212Z,26.40
2024-05-09T01:08:07.094Z,24.98
2024-05-09T01:10:35.472Z,25.63
2024-05-09T01:13:04.458Z,24.95
2024-05-09T01:15:31.596Z,26.50
2024-05-09T01:18:01.018Z,26.25
2024-05-09T01:20:39.029Z,25.45
2024-05-09T01:23:09.854Z,25.98
2024-05-09T01:25:36.958Z,26.20
2024-05-09T01:28:03.864Z,26.98
2024-05-09T01:30:34.981Z,25.90
2024-05-09T01:33:05.377Z,25.15
2024-05-09T01:35:33.227Z,26.90
2024-05-09T01:37:59.971Z,26.45
2024-05-09T01:40:36.259Z,26.20
2024-05-09T01:43:06.033Z,25.42
2024-05-09T01:45:32.779Z,26.23
2024-05-09T01:47:59.754Z,26.70
2024-05-09T01:50:37.278Z,27.77
2024-05-09T01:53:08.964Z,26.10
2024-05-09T01:55:35.730Z,26.35
2024-05-09T01:58:02.319Z,26.08
2024-05-09T02:00:37.371Z,27.13
2024-05-09T02:03:10.740Z,27.58
2024-05-09T02:05:39.306Z,28.52
2024-05-09T02:08:07.263Z,27.02
2024-05-09T02:10:33.984Z,29.27
2024-05-09T02:13:01.063Z,28.73
2024-05-09T02:15:27.846Z,28.85
2024-05-09T02:17:54.702Z,28.67
2024-05-09T02:20:30.255Z,27.55
2024-05-09T02:23:03.817Z,28.20
2024-05-09T02:25:30.929Z,24.80
2024-05-09T02:27:57.539Z,28.13
2024-05-09T02:30:37.717Z,27.13
2024-05-09T02:33:08.210Z,29.33
2024-05-09T02:35:35.729Z,28.67
2024-05-09T02:38:02.559Z,28.40
2024-05-09T02:40:36.527Z,29.35
2024-05-09T02:43:10.467Z,27.40
2024-05-09T02:45:41.173Z,27.15
2024-05-09T02:48:12.203Z,26.98
2024-05-09T02:50:44.415Z,28.40
2024-05-09T02:53:11.917Z,27.80
2024-05-09T02:55:39.164Z,28.20
2024-05-09T02:58:07.304Z,27.23
2024-05-09T03:00:38.857Z,27.92
2024-05-09T03:03:09.587Z,27.73
2024-05-09T03:05:37.804Z,28.50
2024-05-09T03:08:04.875Z,29.08
2024-05-09T03:10:36.250Z,29.05
2024-05-09T03:13:13.824Z,29.20
2024-05-09T03:15:41.969Z,24.23
2024-05-09T03:18:08.831Z,25.75
2024-05-09T03:20:36.826Z,23.95
2024-05-09T03:23:09.397Z,25.02
2024-05-09T03:25:36.981Z,24.58
2024-05-09T03:28:03.769Z,24.48
2024-05-09T03:30:39.322Z,25.25
2024-05-09T03:33:19.959Z,26.13
2024-05-09T03:35:48.544Z,26.30
2024-05-09T03:38:15.761Z,26.45
2024-05-09T03:40:46.773Z,28.35
2024-05-09T03:43:13.968Z,26.23
2024-05-09T03:45:40.607Z,26.65
2024-05-09T03:48:07.935Z,28.75
2024-05-09T03:50:36.234Z,28.48
2024-05-09T03:53:03.983Z,27.58
2024-05-09T03:55:31.170Z,29.05
2024-05-09T03:57:57.869Z,28.15
2024-05-09T04:00:31.421Z,29.50
2024-05-09T04:03:05.916Z,28.23
2024-05-09T04:05:34.405Z,26.40
2024-05-09T04:08:01.496Z,26.17
2024-05-09T04:10:35.123Z,28.45
2024-05-09T04:13:03.283Z,28.08
2024-05-09T04:15:30.468Z,29.83
2024-05-09T04:17:57.186Z,29.65
2024-05-09T04:20:33.360Z,30.13
2024-05-09T04:23:14.713Z,28.27
2024-05-09T04:25:43.121Z,28.88
2024-05-09T04:28:10.034Z,28.02
2024-05-09T04:30:39.642Z,29.33
2024-05-09T04:33:10.754Z,29.05
2024-05-09T04:35:39.398Z,29.30
2024-05-09T04:38:06.539Z,29.80
2024-05-09T04:40:36.098Z,29.08
2024-05-09T04:43:04.995Z,28.77
2024-05-09T04:45:31.908Z,27.67
2024-05-09T04:47:58.926Z,28.65
2024-05-09T04:50:35.200Z,27.38
2024-05-09T04:53:05.625Z,29.83
2024-05-09T04:55:39.240Z,31.10
2024-05-09T04:58:08.717Z,31.30
2024-05-09T05:00:37.687Z,30.58
2024-05-09T05:03:09.344Z,31.63
2024-05-09T05:05:41.329Z,30.70
2024-05-09T05:08:18.974Z,31.10
2024-05-09T05:10:47.195Z,31.67
2024-05-09T05:13:23.049Z,33.65
2024-05-09T05:15:56.968Z,31.73
2024-05-09T05:18:25.969Z,31.60
2024-05-09T05:20:52.792Z,32.13
2024-05-09T05:23:20.972Z,29.52
2024-05-09T05:25:50.196Z,29.48
2024-05-09T05:28:17.208Z,28.38
2024-05-09T05:30:44.404Z,30.05
2024-05-09T05:33:12.925Z,27.83
2024-05-09T05:35:40.866Z,29.30
2024-05-09T05:38:08.780Z,28.15
2024-05-09T05:40:38.355Z,27.05
2024-05-09T05:43:07.343Z,26.38
2024-05-09T05:45:34.010Z,25.98
2024-05-09T05:48:04.028Z,25.35
2024-05-09T05:50:35.876Z,24.13
2024-05-09T05:53:07.057Z,23.20
2024-05-09T05:55:34.363Z,22.55
2024-05-09T05:58:02.374Z,22.58
2024-05-09T06:00:35.530Z,23.35
2024-05-09T06:03:06.060Z,23.02
2024-05-09T06:05:33.114Z,21.38
2024-05-09T06:08:00.147Z,22.17
2024-05-09T06:10:36.961Z,23.77
2024-05-09T06:13:06.398Z,23.73
2024-05-09T06:15:32.964Z,23.02
2024-05-09T06:17:59.718Z,22.80
2024-05-09T06:20:34.825Z,21.90
2024-05-09T06:23:04.415Z,22.20
2024-05-09T06:25:31.425Z,20.23
2024-05-09T06:27:59.030Z,20.45
2024-05-09T06:30:30.970Z,19.80
2024-05-09T06:33:06.042Z,19.55
2024-05-09T06:35:33.631Z,19.42
2024-05-09T06:38:00.689Z,20.55
2024-05-09T06:40:36.215Z,19.95
2024-05-09T06:43:10.190Z,18.23
2024-05-09T06:45:37.075Z,18.77
2024-05-09T06:48:04.231Z,19.13
2024-05-09T06:50:37.005Z,19.42
2024-05-09T06:53:05.463Z,19.40
2024-05-09T06:55:32.165Z,20.85
2024-05-09T06:57:59.075Z,19.88
2024-05-09T07:00:34.553Z,20.42
2024-05-09T07:03:15.655Z,18.23
2024-05-09T07:05:45.245Z,17.77
2024-05-09T07:08:12.325Z,16.75
2024-05-09T07:10:39.093Z,17.63
2024-05-09T07:13:13.494Z,17.38
2024-05-09T07:15:41.548Z,17.05
2024-05-09T07:18:17.379Z,16.98
2024-05-09T07:20:45.582Z,17.38
2024-05-09T07:23:12.760Z,17.42
2024-05-09T07:25:40.582Z,17.88
2024-05-09T07:28:15.397Z,17.15
2024-05-09T07:30:42.953Z,18.38
2024-05-09T07:33:09.857Z,17.48
2024-05-09T07:35:37.203Z,17.92
2024-05-09T07:38:04.104Z,17.85
2024-05-09T07:40:35.944Z,19.00
2024-05-09T07:43:04.584Z,19.55
2024-05-09T07:45:48.042Z,19.52
2024-05-09T07:53:38.907Z,19.92
2024-05-09T07:56:09.392Z,21.33
2024-05-09T07:58:36.806Z,20.05
2024-05-09T08:01:03.668Z,20.58
2024-05-09T08:03:30.906Z,20.13
2024-05-09T08:05:57.827Z,21.88
2024-05-09T08:08:24.483Z,19.15
2024-05-09T08:10:51.324Z,21.58
2024-05-09T08:13:18.207Z,19.38
2024-05-09T08:15:45.043Z,20.98
2024-05-09T08:18:12.143Z,21.27
2024-05-09T08:20:39.537Z,20.55
2024-05-09T08:23:06.404Z,20.70
2024-05-09T08:25:33.136Z,20.92
2024-05-09T08:27:59.919Z,21.50
2024-05-09T08:30:33.414Z,21.23
2024-05-09T08:33:05.100Z,21.50
2024-05-09T08:35:32.736Z,20.20
2024-05-09T08:37:59.474Z,19.85
2024-05-09T08:40:33.551Z,20.23
2024-05-09T08:43:06.821Z,19.83
2024-05-09T08:45:35.134Z,20.90
2024-05-09T08:48:06.060Z,19.67
2024-05-09T08:50:38.766Z,20.38
2024-05-09T08:53:07.473Z,19.90
2024-05-09T08:55:35.453Z,20.52
2024-05-09T08:58:04.238Z,18.77
2024-05-09T09:00:36.844Z,19.10
2024-05-09T09:03:09.071Z,17.80
2024-05-09T09:05:38.504Z,20.65
2024-05-09T09:08:07.883Z,20.45
2024-05-09T09:10:35.593Z,19.77
2024-05-09T09:13:04.445Z,17.73
2024-05-09T09:15:31.789Z,17.60
2024-05-09T09:18:01.730Z,17.20
2024-05-09T09:23:04.598Z,16.77
2024-05-09T09:25:31.843Z,14.50
2024-05-09T09:27:59.326Z,15.75
2024-05-09T09:30:36.300Z,14.02
2024-05-09T09:33:06.063Z,14.10
2024-05-09T09:35:33.006Z,16.85
2024-05-09T09:38:02.879Z,15.55
2024-05-09T09:40:37.209Z,19.52
2024-05-09T09:43:14.121Z,16.45
2024-05-09T09:45:43.256Z,17.27
2024-05-09T09:48:11.941Z,16.73
2024-05-09T09:50:40.124Z,18.70
2024-05-09T09:53:07.892Z,18.70
2024-05-09T09:55:35.682Z,17.67
2024-05-09T09:58:04.105Z,17.08
2024-05-09T10:00:33.613Z,17.98
2024-05-09T10:03:01.710Z,16.60
2024-05-09T10:05:29.379Z,21.58
2024-05-09T10:07:57.428Z,18.10
2024-05-09T10:10:31.644Z,18.13
2024-05-09T10:13:09.089Z,16.13
2024-05-09T10:15:52.299Z,17.42
2024-05-09T10:18:28.118Z,17.50
2024-05-09T10:20:57.105Z,17.92
2024-05-09T10:23:32.344Z,16.85
2024-05-09T10:26:06.240Z,17.33
2024-05-09T10:28:37.551Z,17.30
2024-05-09T10:31:15.466Z,17.05
2024-05-09T10:33:51.766Z,16.60
2024-05-09T10:36:26.194Z,17.38
2024-05-09T10:38:53.958Z,16.55
2024-05-09T10:41:22.689Z,16.38
2024-05-09T10:43:50.494Z,16.53
2024-05-09T10:46:19.120Z,16.05
2024-05-09T10:48:47.376Z,16.10
2024-05-09T10:51:14.683Z,16.67
2024-05-09T10:53:46.153Z,16.85
2024-05-09T10:56:16.532Z,17.40
2024-05-09T10:58:43.312Z,17.13
2024-05-09T11:01:11.040Z,17.65
2024-05-09T11:03:39.042Z,17.10
2024-05-09T11:06:06.646Z,16.73
2024-05-09T11:08:34.046Z,16.50
2024-05-09T11:11:03.004Z,17.25
2024-05-09T11:13:31.627Z,16.98
2024-05-09T11:16:02.185Z,18.10
2024-05-09T11:18:33.807Z,17.35
2024-05-09T11:21:11.148Z,15.90
2024-05-09T11:23:38.128Z,15.90
2024-05-09T11:26:04.930Z,18.67
2024-05-09T11:28:31.603Z,18.65
2024-05-09T11:31:10.112Z,19.02
2024-05-09T11:33:39.130Z,17.65
2024-05-09T11:36:07.055Z,17.40
2024-05-09T11:38:33.706Z,16.67
2024-05-09T11:41:00.340Z,16.55
2024-05-09T11:43:27.019Z,16.88
2024-05-09T11:45:53.782Z,15.85
2024-05-09T11:48:20.783Z,16.05
2024-05-09T11:50:47.505Z,14.95
2024-05-09T11:53:14.070Z,14.70
2024-05-09T11:55:40.662Z,16.60
2024-05-09T11:58:08.387Z,17.90
2024-05-09T12:00:37.456Z,18.65
2024-05-09T12:03:05.871Z,18.75
2024-05-09T12:05:34.136Z,16.23
2024-05-09T12:08:01.463Z,16.65
2024-05-09T12:10:33.428Z,18.23
2024-05-09T12:13:04.378Z,17.27
2024-05-09T12:15:32.494Z,17.83
2024-05-09T12:18:01.691Z,17.63
2024-05-09T12:20:36.584Z,17.52
2024-05-09T12:23:06.467Z,16.40
2024-05-09T12:25:33.277Z,17.25
2024-05-09T12:28:00.311Z,16.42
2024-05-09T12:30:35.513Z,17.38
2024-05-09T12:33:06.765Z,17.75
2024-05-09T12:35:33.400Z,17.35
2024-05-09T12:38:00.291Z,19.08
2024-05-09T12:40:35.333Z,18.33
2024-05-09T12:43:06.126Z,18.90
2024-05-09T12:45:32.971Z,18.95
2024-05-09T12:47:59.808Z,18.60
2024-05-09T12:50:32.405Z,19.02
2024-05-09T12:53:01.006Z,17.70
2024-05-09T12:55:28.553Z,18.13
2024-05-09T12:57:57.261Z,18.83
2024-05-09T13:00:31.086Z,17.98
2024-05-09T13:03:01.202Z,18.38
2024-05-09T13:05:28.494Z,21.05
2024-05-09T13:07:56.671Z,18.45
2024-05-09T13:10:30.854Z,18.63
2024-05-09T13:13:00.798Z,19.30
2024-05-09T13:15:28.094Z,18.77
2024-05-09T13:17:57.277Z,17.52
2024-05-09T13:20:31.986Z,17.85
2024-05-09T13:23:02.663Z,16.92
2024-05-09T13:25:29.373Z,18.48
2024-05-09T13:27:56.741Z,20.10
2024-05-09T13:30:29.820Z,16.65
2024-05-09T13:33:06.323Z,15.80
2024-05-09T13:35:35.325Z,17.05
2024-05-09T13:38:03.735Z,17.03
2024-05-09T13:40:34.443Z,19.05
2024-05-09T13:43:04.076Z,18.98
2024-05-09T13:45:31.073Z,19.33
2024-05-09T13:47:58.168Z,19.85
2024-05-09T13:50:33.176Z,19.13
2024-05-09T13:53:02.694Z,18.55
2024-05-09T13:55:29.264Z,19.05
2024-05-09T13:57:56.335Z,16.85
2024-05-09T14:00:37.350Z,19.25
2024-05-09T14:03:10.071Z,18.05
2024-05-09T14:05:37.034Z,18.10
2024-05-09T14:08:04.144Z,17.10
2024-05-09T14:10:32.228Z,18.83
2024-05-09T14:13:00.749Z,16.15
2024-05-09T14:15:27.773Z,18.75
2024-05-09T14:17:55.301Z,18.63
2024-05-09T14:20:31.035Z,18.67
2024-05-09T14:23:00.398Z,17.98
2024-05-09T14:25:28.633Z,19.90
2024-05-09T14:27:57.533Z,20.52
2024-05-09T14:30:31.020Z,16.55
2024-05-09T14:33:04.155Z,15.87
2024-05-09T14:35:30.975Z,17.50
2024-05-09T14:37:57.679Z,17.17
2024-05-09T14:42:53.725Z,16.70
2024-05-09T14:45:20.738Z,16.80
2024-05-09T14:47:47.467Z,16.85
2024-05-09T14:50:23.528Z,18.58
2024-05-09T14:52:54.768Z,19.23
2024-05-09T14:55:21.499Z,20.60
2024-05-09T14:57:48.345Z,22.63
2024-05-09T15:00:21.473Z,17.23
2024-05-09T15:02:55.447Z,16.77
2024-05-09T15:05:47.936Z,16.55
2024-05-09T15:08:17.429Z,15.80
2024-05-09T15:10:44.224Z,19.00
2024-05-09T15:13:13.241Z,18.45
2024-05-09T15:15:41.864Z,17.05
2024-05-09T15:18:08.798Z,16.70
2024-05-09T15:20:37.131Z,19.15
2024-05-09T15:23:05.522Z,20.33
2024-05-09T15:25:33.533Z,17.00
2024-05-09T15:28:00.420Z,18.33
2024-05-09T15:30:31.443Z,20.92
2024-05-09T15:33:00.859Z,22.23
2024-05-09T15:35:27.926Z,21.77
2024-05-09T15:37:54.650Z,21.17
2024-05-09T15:40:30.885Z,23.65
2024-05-09T15:43:05.219Z,25.30
2024-05-09T15:45:32.145Z,22.33
2024-05-09T15:47:59.596Z,23.17
2024-05-09T15:50:36.080Z,22.92
2024-05-09T15:53:07.630Z,22.38
2024-05-09T15:55:35.190Z,22.58
2024-05-09T15:58:03.216Z,21.95
2024-05-09T16:00:37.803Z,22.20
2024-05-09T16:03:12.775Z,22.00
2024-05-09T16:05:41.410Z,22.27
2024-05-09T16:08:08.995Z,22.15
2024-05-09T16:10:37.063Z,24.45
2024-05-09T16:13:04.991Z,23.38
2024-05-09T16:15:32.139Z,23.05
2024-05-09T16:17:59.785Z,21.90
2024-05-09T16:20:34.959Z,23.23
2024-05-09T16:23:07.300Z,21.70
2024-05-09T16:25:34.093Z,22.40
2024-05-09T16:28:01.748Z,20.77
2024-05-09T16:30:34.500Z,20.10
2024-05-09T16:33:04.303Z,21.70
2024-05-09T16:35:32.119Z,22.83
2024-05-09T16:38:02.198Z,23.33
2024-05-09T16:43:06.696Z,24.40
2024-05-09T16:45:34.240Z,21.83
2024-05-09T16:48:01.913Z,21.48
2024-05-09T16:50:33.466Z,23.02
2024-05-09T16:53:02.444Z,22.73
2024-05-09T16:55:29.136Z,22.13
2024-05-09T16:57:57.255Z,21.27
2024-05-09T17:00:35.221Z,25.23
2024-05-09T17:03:08.702Z,22.88
2024-05-09T17:05:36.120Z,21.52
2024-05-09T17:08:03.472Z,22.42
2024-05-09T17:10:33.609Z,22.40
2024-05-09T17:13:03.265Z,22.75
2024-05-09T17:15:31.931Z,21.65
2024-05-09T17:17:58.828Z,20.73
2024-05-09T17:20:32.211Z,23.15
2024-05-09T17:23:02.729Z,22.15
2024-05-09T17:25:29.552Z,22.00
2024-05-09T17:27:57.072Z,22.85
2024-05-09T17:30:32.003Z,22.70
2024-05-09T17:33:03.978Z,22.98
2024-05-09T17:35:31.660Z,21.77
2024-05-09T17:37:59.580Z,22.77
2024-05-09T17:40:32.622Z,21.48
2024-05-09T17:43:02.994Z,21.88
2024-05-09T17:45:29.799Z,21.15
2024-05-09T17:47:56.770Z,20.92
2024-05-09T17:50:30.369Z,21.77
2024-05-09T17:53:01.290Z,22.42
2024-05-09T17:55:28.666Z,22.35
2024-05-09T17:57:55.553Z,22.33
2024-05-09T18:00:32.846Z,22.63
2024-05-09T18:03:05.882Z,22.95
2024-05-09T18:05:32.942Z,24.40
2024-05-09T18:07:59.966Z,22.63
2024-05-09T18:10:33.698Z,22.42
2024-05-09T18:13:05.313Z,23.65
2024-05-09T18:15:32.322Z,22.00
2024-05-09T18:17:59.445Z,19.02
2024-05-09T18:20:32.994Z,20.50
2024-05-09T18:23:07.863Z,20.42
2024-05-09T18:25:34.911Z,19.85
2024-05-09T18:28:02.795Z,18.30
2024-05-09T18:30:34.754Z,18.75
2024-05-09T18:33:04.313Z,18.15
2024-05-09T18:35:31.686Z,18.95
2024-05-09T18:37:58.402Z,16.95
2024-05-09T18:40:32.415Z,19.95
2024-05-09T18:43:02.953Z,16.65
2024-05-09T18:45:29.834Z,17.98
2024-05-09T18:47:56.831Z,21.10
2024-05-09T18:50:32.235Z,17.60
2024-05-09T18:53:03.471Z,17.50
2024-05-09T18:55:30.047Z,17.20
2024-05-09T18:57:56.991Z,17.55
2024-05-09T19:00:33.208Z,17.95
2024-05-09T19:03:05.592Z,17.80
2024-05-09T19:05:33.294Z,17.77
2024-05-09T19:08:00.424Z,17.40
2024-05-09T19:10:33.704Z,17.15
2024-05-09T19:13:04.312Z,17.08
2024-05-09T19:15:33.646Z,18.20
2024-05-09T19:18:00.662Z,18.42
2024-05-09T19:20:33.166Z,21.83
2024-05-09T19:23:01.538Z,21.38
2024-05-09T19:25:28.125Z,21.95
2024-05-09T19:27:54.782Z,21.58
2024-05-09T19:30:29.908Z,21.35
2024-05-09T19:33:04.944Z,21.35
2024-05-09T19:35:32.227Z,21.85
2024-05-09T19:37:58.997Z,21.70
2024-05-09T19:40:31.299Z,22.20
2024-05-09T19:43:00.442Z,21.70
2024-05-09T19:45:27.351Z,20.58
2024-05-09T19:47:54.264Z,20.92
2024-05-09T19:50:27.139Z,20.38
2024-05-09T19:53:03.096Z,20.02
2024-05-09T19:55:29.920Z,19.40
2024-05-09T19:57:56.931Z,20.38
2024-05-09T20:00:32.321Z,22.15
2024-05-09T20:03:02.387Z,20.77
2024-05-09T20:05:31.465Z,20.55
2024-05-09T20:07:58.386Z,20.65
2024-05-09T20:10:31.126Z,20.13
2024-05-09T20:13:00.026Z,22.75
2024-05-09T20:15:26.866Z,23.17
2024-05-09T20:17:54.343Z,25.63
2024-05-09T20:20:32.085Z,23.75
2024-05-09T20:23:03.903Z,23.70
2024-05-09T20:25:30.509Z,22.60
2024-05-09T20:27:57.175Z,21.92
2024-05-09T20:30:31.225Z,23.33
2024-05-09T20:32:59.994Z,23.45
2024-05-09T20:35:26.958Z,23.92
2024-05-09T20:37:53.651Z,23.63
2024-05-09T20:40:28.344Z,24.48
2024-05-09T20:42:59.208Z,23.60
2024-05-09T20:45:26.351Z,23.23
2024-05-09T20:47:53.220Z,23.83
2024-05-09T20:50:28.523Z,23.30
2024-05-09T20:53:03.027Z,23.27
2024-05-09T20:55:30.068Z,23.35
2024-05-09T20:57:57.525Z,23.67
2024-05-09T21:00:34.308Z,22.75
2024-05-09T21:03:06.723Z,24.30
2024-05-09T21:05:34.648Z,24.20
2024-05-09T21:08:01.854Z,24.10
2024-05-09T21:10:32.732Z,25.25
2024-05-09T21:13:01.407Z,28.35
2024-05-09T21:15:28.359Z,26.63
2024-05-09T21:17:55.215Z,25.13
2024-05-09T21:20:28.700Z,25.70
2024-05-09T21:22:58.195Z,25.17
2024-05-09T21:25:24.858Z,24.02
2024-05-09T21:27:51.529Z,23.80
2024-05-09T21:30:27.295Z,23.83
2024-05-09T21:32:59.934Z,24.90
2024-05-09T21:35:26.595Z,24.27
2024-05-09T21:37:53.173Z,24.50
2024-05-09T21:40:27.278Z,26.17
2024-05-09T21:43:00.776Z,26.15
2024-05-09T21:45:27.551Z,26.27
2024-05-09T21:47:54.306Z,25.67
2024-05-09T21:50:27.634Z,26.40
2024-05-09T21:52:58.910Z,25.02
2024-05-09T21:55:25.540Z,24.15
2024-05-09T21:57:52.385Z,24.58
2024-05-09T22:00:28.710Z,24.67
2024-05-09T22:03:02.664Z,25.38
2024-05-09T22:05:29.604Z,25.50
2024-05-09T22:07:57.162Z,25.63
2024-05-09T22:10:30.520Z,26.48
2024-05-09T22:13:01.045Z,24.77
2024-05-09T22:15:28.266Z,26.30
2024-05-09T22:17:57.125Z,26.15
2024-05-09T22:20:32.952Z,24.87
2024-05-09T22:23:03.998Z,21.15
2024-05-09T22:25:31.478Z,26.70
2024-05-09T22:27:59.025Z,24.83
2024-05-09T22:30:34.178Z,26.35
2024-05-09T22:33:05.746Z,26.45
2024-05-09T22:35:32.741Z,25.75
2024-05-09T22:37:59.424Z,25.58
2024-05-09T22:40:38.030Z,26.52
2024-05-09T22:43:12.824Z,26.50
2024-05-09T22:45:39.623Z,26.17
2024-05-09T22:48:07.643Z,23.75
2024-05-09T22:50:34.610Z,27.00
2024-05-09T22:53:01.375Z,25.58
2024-05-09T22:55:28.107Z,25.80
2024-05-09T22:57:55.037Z,25.67
2024-05-09T23:00:29.444Z,24.55
2024-05-09T23:03:00.337Z,25.50
2024-05-09T23:05:27.319Z,25.27
2024-05-09T23:07:54.028Z,24.55
2024-05-09T23:10:27.904Z,26.42
2024-05-09T23:13:00.826Z,25.70
2024-05-09T23:15:27.484Z,26.60
2024-05-09T23:17:54.269Z,25.77
2024-05-09T23:20:30.028Z,24.98
2024-05-09T23:23:03.714Z,26.50
2024-05-09T23:25:30.403Z,25.15
2024-05-09T23:27:57.230Z,27.00
2024-05-09T23:30:33.335Z,25.60
2024-05-09T23:33:05.426Z,27.15
2024-05-09T23:35:32.106Z,25.65
2024-05-09T23:37:58.693Z,25.35
2024-05-09T23:40:36.825Z,26.48
2024-05-09T23:43:07.360Z,25.50
2024-05-09T23:45:34.613Z,26.88
2024-05-09T23:48:01.720Z,27.83
2024-05-09T23:50:34.125Z,26.80
2024-05-09T23:53:03.942Z,27.00
2024-05-09T23:55:31.458Z,26.42
2024-05-09T23:57:58.355Z,26.10
